Time;durP1;ratioP1;P1;durP2;ratioP2;P2;SDS_P1;SDS_P2;PMS_P1;PMS_P2;Temp;Humidity;BMP_temperature;BMP_pressure;BME280_temperature;BME280_humidity;BME280_pressure;Samples;Min_cycle;Max_cycle;Signal;HPM_P1;HPM_P2
2022/09/16 00:00:10;;;;;;;;;;;18.00;62.30;;;;;;5017820;28;20008;-83
2022/09/16 00:02:36;;;;;;;;;;;18.00;62.30;;;;;;5050633;28;20274;-83
2022/09/16 00:05:02;;;;;;;;;;;18.00;62.30;;;;;;5034904;28;19913;-84
2022/09/16 00:07:28;;;;;;;;;;;17.90;62.30;;;;;;5017752;28;19909;-84
2022/09/16 00:09:54;;;;;;;;;;;17.90;62.30;;;;;;5017119;28;19929;-83
2022/09/16 00:12:20;;;;;;;;;;;17.90;62.30;;;;;;5050273;28;20048;-82
2022/09/16 00:14:45;;;;;;;;;;;17.90;62.40;;;;;;5035020;28;19913;-83
2022/09/16 00:17:11;;;;;;;;;;;17.90;62.40;;;;;;5017162;28;19913;-83
2022/09/16 00:19:36;;;;;;;;;;;17.80;62.40;;;;;;5016802;28;20491;-84
2022/09/16 00:22:02;;;;;;;;;;;17.80;62.40;;;;;;5017633;28;19948;-84
2022/09/16 00:24:28;;;;;;;;;;;17.80;62.40;;;;;;5034587;28;19913;-83
2022/09/16 00:26:54;;;;;;;;;;;17.80;62.50;;;;;;5033457;28;20379;-84
2022/09/16 00:29:19;;;;;;;;;;;17.80;62.40;;;;;;5017620;28;20361;-83
2022/09/16 00:31:45;;;;;;;;;;;17.80;62.50;;;;;;5034131;28;19909;-83
2022/09/16 00:34:11;;;;;;;;;;;17.70;62.40;;;;;;5017040;28;19920;-83
2022/09/16 00:36:36;;;;;;;;;;;17.80;62.50;;;;;;5034444;28;19913;-82
2022/09/16 00:39:02;;;;;;;;;;;17.80;62.60;;;;;;5032995;28;20388;-84
2022/09/16 00:41:32;;;;;;;;;;;17.80;62.60;;;;;;5016488;28;19912;-83
2022/09/16 00:44:04;;;;;;;;;;;17.70;62.50;;;;;;5034422;28;19909;-83
2022/09/16 00:46:33;;;;;;;;;;;17.70;62.60;;;;;;5034093;28;19913;-83
2022/09/16 00:49:01;;;;;;;;;;;17.70;62.60;;;;;;5017336;28;19912;-83
2022/09/16 00:51:27;;;;;;;;;;;17.70;62.60;;;;;;5034207;28;19909;-83
2022/09/16 00:53:56;;;;;;;;;;;17.70;62.60;;;;;;5033995;28;19916;-81
2022/09/16 00:56:23;;;;;;;;;;;17.70;62.60;;;;;;5016130;28;19971;-82
2022/09/16 00:58:51;;;;;;;;;;;17.70;62.70;;;;;;5034773;28;19920;-82
2022/09/16 01:01:17;;;;;;;;;;;17.70;62.70;;;;;;5050265;28;19941;-82
2022/09/16 01:03:51;;;;;;;;;;;17.70;62.70;;;;;;5033476;28;19913;-83
2022/09/16 01:06:17;;;;;;;;;;;17.60;62.70;;;;;;5016603;28;19988;-85
2022/09/16 01:08:44;;;;;;;;;;;17.60;62.70;;;;;;5015420;28;19959;-82
2022/09/16 01:11:09;;;;;;;;;;;17.60;62.70;;;;;;5049311;28;19916;-88
2022/09/16 01:13:36;;;;;;;;;;;17.60;62.70;;;;;;5032677;28;19909;-83
2022/09/16 01:16:20;;;;;;;;;;;17.60;62.80;;;;;;5033545;28;19912;-83
2022/09/16 01:18:48;;;;;;;;;;;17.60;62.80;;;;;;5016319;28;19959;-82
2022/09/16 01:21:42;;;;;;;;;;;17.60;62.80;;;;;;5032775;28;19909;-83
2022/09/16 01:24:32;;;;;;;;;;;17.60;62.80;;;;;;5017062;28;19915;-83
2022/09/16 01:26:57;;;;;;;;;;;17.60;62.80;;;;;;5016382;28;19909;-84
2022/09/16 01:30:01;;;;;;;;;;;17.60;62.80;;;;;;5016448;28;19911;-84
2022/09/16 01:32:39;;;;;;;;;;;17.60;62.90;;;;;;4992316;28;19910;-84
2022/09/16 01:35:17;;;;;;;;;;;17.60;62.90;;;;;;4959970;28;19914;-82
2022/09/16 01:37:43;;;;;;;;;;;17.60;62.90;;;;;;4997850;28;19917;-82
2022/09/16 01:40:31;;;;;;;;;;;17.50;62.90;;;;;;5030943;28;19905;-85
2022/09/16 01:43:07;;;;;;;;;;;17.60;62.90;;;;;;5016490;28;19909;-82
2022/09/16 01:45:42;;;;;;;;;;;17.50;62.90;;;;;;5033540;28;19996;-83
2022/09/16 01:48:41;;;;;;;;;;;17.50;62.90;;;;;;5016000;28;20350;-87
2022/09/16 01:51:06;;;;;;;;;;;17.50;62.90;;;;;;5010845;28;20388;-82
2022/09/16 01:53:37;;;;;;;;;;;17.50;62.90;;;;;;5016113;28;19909;-85
2022/09/16 01:56:15;;;;;;;;;;;17.50;62.90;;;;;;5033548;28;19948;-83
2022/09/16 01:58:50;;;;;;;;;;;17.50;63.00;;;;;;5034097;28;20362;-84
2022/09/16 02:01:24;;;;;;;;;;;17.50;63.00;;;;;;5016171;28;19948;-83
2022/09/16 02:03:52;;;;;;;;;;;17.50;63.00;;;;;;5034008;28;19955;-87
2022/09/16 02:06:20;;;;;;;;;;;17.50;63.00;;;;;;5016345;28;19931;-85
2022/09/16 02:09:00;;;;;;;;;;;17.50;63.00;;;;;;5031455;28;19971;-83
2022/09/16 02:11:26;;;;;;;;;;;17.50;63.10;;;;;;5048684;28;19941;-83
2022/09/16 02:14:02;;;;;;;;;;;17.50;63.10;;;;;;5033230;28;19956;-85
2022/09/16 02:16:31;;;;;;;;;;;17.40;63.00;;;;;;5033059;28;19920;-83
2022/09/16 02:19:01;;;;;;;;;;;17.50;63.10;;;;;;5033541;28;19916;-86
2022/09/16 02:21:27;;;;;;;;;;;17.40;63.10;;;;;;5018093;28;20422;-84
2022/09/16 02:23:56;;;;;;;;;;;17.40;63.10;;;;;;5019088;28;20351;-83
2022/09/16 02:26:25;;;;;;;;;;;17.40;63.10;;;;;;5019296;28;19963;-83
2022/09/16 02:28:52;;;;;;;;;;;17.40;63.10;;;;;;5036967;28;19905;-84
2022/09/16 02:31:20;;;;;;;;;;;17.40;63.10;;;;;;5019461;28;19916;-82
2022/09/16 02:33:59;;;;;;;;;;;17.40;63.10;;;;;;5019091;28;19905;-83
2022/09/16 02:36:25;;;;;;;;;;;17.40;63.10;;;;;;5018811;28;19925;-82
2022/09/16 02:39:07;;;;;;;;;;;17.40;63.10;;;;;;5036547;28;19909;-82
2022/09/16 02:41:33;;;;;;;;;;;17.40;63.10;;;;;;5003105;28;19909;-85
2022/09/16 02:43:59;;;;;;;;;;;17.40;63.10;;;;;;5036562;28;19916;-83
2022/09/16 02:46:41;;;;;;;;;;;17.30;63.10;;;;;;5036902;28;19913;-83
2022/09/16 02:49:15;;;;;;;;;;;17.40;63.20;;;;;;5018959;28;19987;-84
2022/09/16 02:51:57;;;;;;;;;;;17.40;63.20;;;;;;5036487;28;19909;-85
2022/09/16 02:54:38;;;;;;;;;;;17.30;63.10;;;;;;5018901;28;20266;-83
2022/09/16 02:57:05;;;;;;;;;;;17.30;63.20;;;;;;5018966;28;20340;-85
2022/09/16 02:59:31;;;;;;;;;;;17.30;63.20;;;;;;5019194;28;19917;-88
2022/09/16 03:01:57;;;;;;;;;;;17.30;63.20;;;;;;5036043;28;20016;-82
2022/09/16 03:04:23;;;;;;;;;;;17.30;63.20;;;;;;5018319;28;19905;-85
2022/09/16 03:06:49;;;;;;;;;;;17.30;63.20;;;;;;5036006;28;19913;-84
2022/09/16 03:09:16;;;;;;;;;;;17.30;63.20;;;;;;5018167;28;19979;-82
2022/09/16 03:12:00;;;;;;;;;;;17.30;63.20;;;;;;5018457;28;20362;-83
2022/09/16 03:14:41;;;;;;;;;;;17.30;63.20;;;;;;5035637;28;19952;-83
2022/09/16 03:17:26;;;;;;;;;;;17.30;63.30;;;;;;5051787;28;20273;-82
2022/09/16 03:20:05;;;;;;;;;;;17.20;63.20;;;;;;5018071;28;20371;-83
2022/09/16 03:22:30;;;;;;;;;;;17.20;63.20;;;;;;5036308;28;19959;-85
2022/09/16 03:25:07;;;;;;;;;;;17.20;63.20;;;;;;5051917;28;19905;-87
2022/09/16 03:27:39;;;;;;;;;;;17.20;63.30;;;;;;5018177;28;19932;-82
2022/09/16 03:30:06;;;;;;;;;;;17.20;63.30;;;;;;5017724;28;19909;-82
2022/09/16 03:32:50;;;;;;;;;;;17.20;63.30;;;;;;5033665;28;19963;-82
2022/09/16 03:35:19;;;;;;;;;;;17.20;63.30;;;;;;5017735;28;19909;-82
2022/09/16 03:37:45;;;;;;;;;;;17.20;63.30;;;;;;5017781;28;19967;-82
2022/09/16 03:40:12;;;;;;;;;;;17.10;63.30;;;;;;5018070;28;19920;-82
2022/09/16 03:42:39;;;;;;;;;;;17.10;63.30;;;;;;5018266;28;19905;-82
2022/09/16 03:45:05;;;;;;;;;;;17.10;63.30;;;;;;5017958;28;19916;-82
2022/09/16 03:47:31;;;;;;;;;;;17.10;63.40;;;;;;5035660;28;19909;-82
2022/09/16 03:49:57;;;;;;;;;;;17.10;63.40;;;;;;5034066;28;19913;-85
2022/09/16 03:52:23;;;;;;;;;;;17.10;63.40;;;;;;5017536;28;19916;-86
2022/09/16 03:54:48;;;;;;;;;;;17.10;63.40;;;;;;5017540;28;20372;-84
2022/09/16 03:57:14;;;;;;;;;;;17.10;63.40;;;;;;5017497;28;19923;-83
2022/09/16 03:59:40;;;;;;;;;;;17.10;63.40;;;;;;5001167;28;19956;-84
2022/09/16 04:02:06;;;;;;;;;;;17.10;63.40;;;;;;5017678;28;19940;-85
2022/09/16 04:04:32;;;;;;;;;;;17.10;63.40;;;;;;5017374;28;19959;-83
2022/09/16 04:06:57;;;;;;;;;;;17.10;63.40;;;;;;5050459;28;20289;-86
2022/09/16 04:09:23;;;;;;;;;;;17.10;64.10;;;;;;5017800;28;19920;-83
2022/09/16 04:11:49;;;;;;;;;;;17.10;63.50;;;;;;5017288;28;20461;-83
2022/09/16 04:14:14;;;;;;;;;;;17.10;63.50;;;;;;5033911;28;19913;-84
2022/09/16 04:16:40;;;;;;;;;;;17.00;63.40;;;;;;5017388;28;19913;-83
2022/09/16 04:19:06;;;;;;;;;;;17.10;63.50;;;;;;5033544;28;20034;-86
2022/09/16 04:21:31;;;;;;;;;;;17.00;63.40;;;;;;5017305;28;19905;-85
2022/09/16 04:23:57;;;;;;;;;;;17.00;63.50;;;;;;5033522;28;20007;-83
2022/09/16 04:26:23;;;;;;;;;;;17.00;63.50;;;;;;5034501;28;19909;-83
2022/09/16 04:28:51;;;;;;;;;;;17.00;63.50;;;;;;5016935;28;19909;-82
2022/09/16 04:31:16;;;;;;;;;;;17.00;63.50;;;;;;5017641;28;19905;-82
2022/09/16 04:33:42;;;;;;;;;;;17.00;63.50;;;;;;5050389;28;19920;-83
2022/09/16 04:36:12;;;;;;;;;;;17.00;63.50;;;;;;5034025;28;19979;-83
2022/09/16 04:38:38;;;;;;;;;;;17.00;63.50;;;;;;5016800;28;19919;-83
2022/09/16 04:41:05;;;;;;;;;;;17.00;63.50;;;;;;5033624;28;20015;-83
2022/09/16 04:43:31;;;;;;;;;;;17.00;63.60;;;;;;5033287;28;19916;-82
2022/09/16 04:45:57;;;;;;;;;;;17.00;63.60;;;;;;5049554;28;20273;-84
2022/09/16 04:48:24;;;;;;;;;;;17.00;63.60;;;;;;5016688;28;20340;-84
2022/09/16 04:50:50;;;;;;;;;;;17.00;63.60;;;;;;5016630;28;19905;-85
2022/09/16 04:53:15;;;;;;;;;;;17.00;63.60;;;;;;5049841;28;19916;-82
2022/09/16 04:55:41;;;;;;;;;;;17.00;63.60;;;;;;5033033;28;19921;-83
2022/09/16 04:58:07;;;;;;;;;;;17.00;63.60;;;;;;5033876;28;19909;-83
2022/09/16 05:00:32;;;;;;;;;;;16.90;63.60;;;;;;5016465;28;19999;-84
2022/09/16 05:02:58;;;;;;;;;;;17.00;63.60;;;;;;5033674;28;20350;-84
2022/09/16 05:05:23;;;;;;;;;;;17.00;63.60;;;;;;5049415;28;19917;-84
2022/09/16 05:07:49;;;;;;;;;;;16.90;63.60;;;;;;5034275;28;19909;-83
2022/09/16 05:10:15;;;;;;;;;;;16.90;63.60;;;;;;5033033;28;20297;-83
2022/09/16 05:12:40;;;;;;;;;;;16.90;63.60;;;;;;5017072;28;19913;-84
2022/09/16 05:15:06;;;;;;;;;;;16.90;63.60;;;;;;5016579;28;19924;-83
2022/09/16 05:17:32;;;;;;;;;;;16.90;63.60;;;;;;5017136;28;19909;-83
2022/09/16 05:19:57;;;;;;;;;;;16.90;63.70;;;;;;5016262;28;20329;-82
2022/09/16 05:22:23;;;;;;;;;;;16.90;63.70;;;;;;5049126;28;19975;-83
2022/09/16 05:24:49;;;;;;;;;;;16.90;63.70;;;;;;5033270;28;19909;-85
2022/09/16 05:27:14;;;;;;;;;;;16.90;63.70;;;;;;5017173;28;20315;-84
2022/09/16 05:29:40;;;;;;;;;;;16.90;63.70;;;;;;5032918;28;19913;-85
2022/09/16 05:32:06;;;;;;;;;;;16.90;63.70;;;;;;5016469;28;19916;-82
2022/09/16 05:34:32;;;;;;;;;;;16.90;63.70;;;;;;5033803;28;20350;-84
2022/09/16 05:36:59;;;;;;;;;;;16.90;63.70;;;;;;5033622;28;19985;-82
2022/09/16 05:39:24;;;;;;;;;;;16.90;63.70;;;;;;5045691;28;19925;-85
2022/09/16 05:41:54;;;;;;;;;;;16.90;63.70;;;;;;5029832;28;20056;-83
2022/09/16 05:44:20;;;;;;;;;;;16.90;63.80;;;;;;5033542;28;19953;-83
2022/09/16 05:46:46;;;;;;;;;;;16.90;63.80;;;;;;5015994;28;19967;-83
2022/09/16 05:49:11;;;;;;;;;;;16.80;63.70;;;;;;5032743;28;19913;-82
2022/09/16 05:51:37;;;;;;;;;;;16.80;63.70;;;;;;5015746;28;20273;-87
2022/09/16 05:54:04;;;;;;;;;;;16.80;63.70;;;;;;5049275;28;19964;-84
2022/09/16 05:56:30;;;;;;;;;;;16.80;63.70;;;;;;5036158;28;19960;-85
2022/09/16 05:58:56;;;;;;;;;;;16.80;63.70;;;;;;5053707;28;19945;-82
2022/09/16 06:01:27;;;;;;;;;;;16.80;63.80;;;;;;5052393;28;19905;-82
2022/09/16 06:03:53;;;;;;;;;;;16.80;63.80;;;;;;5019596;28;19963;-86
2022/09/16 06:06:23;;;;;;;;;;;16.80;63.80;;;;;;5035861;28;19964;-84
2022/09/16 06:08:49;;;;;;;;;;;16.70;63.80;;;;;;5037277;28;19917;-82
2022/09/16 06:11:15;;;;;;;;;;;16.70;63.70;;;;;;5003333;28;19909;-85
2022/09/16 06:13:41;;;;;;;;;;;16.70;63.80;;;;;;5019469;28;19909;-85
2022/09/16 06:16:07;;;;;;;;;;;16.70;63.80;;;;;;5019342;28;20357;-84
2022/09/16 06:18:33;;;;;;;;;;;16.70;63.80;;;;;;5052407;28;19913;-83
2022/09/16 06:21:02;;;;;;;;;;;16.70;63.80;;;;;;5035533;28;20013;-83
2022/09/16 06:23:28;;;;;;;;;;;16.70;63.80;;;;;;5019350;28;19958;-83
2022/09/16 06:26:04;;;;;;;;;;;16.70;63.80;;;;;;5036111;28;20277;-83
2022/09/16 06:28:29;;;;;;;;;;;16.70;63.80;;;;;;5019801;28;19909;-84
2022/09/16 06:31:05;;;;;;;;;;;16.70;63.80;;;;;;5036704;28;20357;-84
2022/09/16 06:33:32;;;;;;;;;;;16.70;63.80;;;;;;5019850;28;19916;-83
2022/09/16 06:36:01;;;;;;;;;;;16.70;64.50;;;;;;5037015;28;19919;-82
2022/09/16 06:38:26;;;;;;;;;;;16.70;63.90;;;;;;5036918;28;19939;-83
2022/09/16 06:40:52;;;;;;;;;;;16.70;63.90;;;;;;5035981;28;20379;-83
2022/09/16 06:43:18;;;;;;;;;;;16.60;63.80;;;;;;5035834;28;19969;-89
2022/09/16 06:45:43;;;;;;;;;;;16.70;63.90;;;;;;5018907;28;19944;-84
2022/09/16 06:48:09;;;;;;;;;;;16.70;63.90;;;;;;5035554;28;20297;-82
2022/09/16 06:50:34;;;;;;;;;;;16.70;63.90;;;;;;5035420;28;19909;-85
2022/09/16 06:53:00;;;;;;;;;;;16.60;63.90;;;;;;5052095;28;19962;-82
2022/09/16 06:55:26;;;;;;;;;;;16.60;63.90;;;;;;5035431;28;20368;-83
2022/09/16 06:57:52;;;;;;;;;;;16.60;63.90;;;;;;5018914;28;19913;-82
2022/09/16 07:00:17;;;;;;;;;;;16.60;64.50;;;;;;5019166;28;19905;-83
2022/09/16 07:02:43;;;;;;;;;;;16.60;63.90;;;;;;5035561;28;19912;-85
2022/09/16 07:05:08;;;;;;;;;;;16.60;63.90;;;;;;5018993;28;19909;-86
2022/09/16 07:07:35;;;;;;;;;;;16.60;63.90;;;;;;5017665;28;19998;-85
2022/09/16 07:10:01;;;;;;;;;;;16.60;63.90;;;;;;5035145;28;20063;-86
2022/09/16 07:12:27;;;;;;;;;;;16.60;63.90;;;;;;5036123;28;20341;-84
2022/09/16 07:14:53;;;;;;;;;;;16.60;63.90;;;;;;5018308;28;19952;-86
2022/09/16 07:17:18;;;;;;;;;;;16.60;63.90;;;;;;5018796;28;19928;-85
2022/09/16 07:19:44;;;;;;;;;;;16.60;63.90;;;;;;5051743;28;19924;-86
2022/09/16 07:22:10;;;;;;;;;;;16.60;63.90;;;;;;5035035;28;19963;-87
2022/09/16 07:24:36;;;;;;;;;;;16.60;63.90;;;;;;5018695;28;19913;-86
2022/09/16 07:27:01;;;;;;;;;;;16.60;63.90;;;;;;5035297;28;19909;-87
2022/09/16 07:29:27;;;;;;;;;;;16.60;63.90;;;;;;5035491;28;20391;-88
2022/09/16 07:31:53;;;;;;;;;;;16.60;63.90;;;;;;5035158;28;20386;-86
2022/09/16 07:34:19;;;;;;;;;;;16.60;63.90;;;;;;5035320;28;19917;-86
2022/09/16 07:36:46;;;;;;;;;;;16.60;63.90;;;;;;5035242;28;19921;-85
2022/09/16 07:39:12;;;;;;;;;;;16.60;63.90;;;;;;5035138;28;19913;-85
2022/09/16 07:41:44;;;;;;;;;;;16.60;63.90;;;;;;5034931;28;19948;-85
2022/09/16 07:44:11;;;;;;;;;;;16.70;64.00;;;;;;5018798;28;19915;-86
2022/09/16 07:46:37;;;;;;;;;;;16.70;64.00;;;;;;5018705;28;19927;-85
2022/09/16 07:49:03;;;;;;;;;;;16.70;64.00;;;;;;5036224;28;20334;-86
2022/09/16 07:51:29;;;;;;;;;;;16.70;64.00;;;;;;5035900;28;19928;-85
2022/09/16 07:54:03;;;;;;;;;;;16.70;64.00;;;;;;5018760;28;20260;-86
2022/09/16 07:56:30;;;;;;;;;;;16.70;64.00;;;;;;5018177;28;19924;-84
2022/09/16 07:58:56;;;;;;;;;;;16.70;64.00;;;;;;5017984;28;19988;-86
2022/09/16 08:01:22;;;;;;;;;;;16.70;64.00;;;;;;5018518;28;19936;-85
2022/09/16 08:03:47;;;;;;;;;;;16.70;64.00;;;;;;5019105;28;20000;-84
2022/09/16 08:06:17;;;;;;;;;;;16.70;63.90;;;;;;5018304;28;19951;-84
2022/09/16 08:08:44;;;;;;;;;;;16.70;64.00;;;;;;5016072;28;19917;-86
2022/09/16 08:11:11;;;;;;;;;;;16.70;63.90;;;;;;5018453;28;20328;-82
2022/09/16 08:13:37;;;;;;;;;;;16.70;64.60;;;;;;5035157;28;20353;-86
2022/09/16 08:16:16;;;;;;;;;;;16.70;63.90;;;;;;5017376;28;19920;-84
2022/09/16 08:18:43;;;;;;;;;;;16.70;63.90;;;;;;5017010;28;19909;-86
2022/09/16 08:21:10;;;;;;;;;;;16.80;64.30;;;;;;5017694;28;19909;-85
2022/09/16 08:23:36;;;;;;;;;;;16.80;64.00;;;;;;5017100;28;19975;-85
2022/09/16 08:26:02;;;;;;;;;;;16.80;64.00;;;;;;5017281;28;19905;-83
2022/09/16 08:28:28;;;;;;;;;;;16.80;64.00;;;;;;5017139;28;19909;-84
2022/09/16 08:30:57;;;;;;;;;;;16.80;63.90;;;;;;5016996;28;19959;-86
2022/09/16 08:33:24;;;;;;;;;;;16.80;63.90;;;;;;5017239;28;19909;-83
2022/09/16 08:36:16;;;;;;;;;;;16.80;63.90;;;;;;5033255;28;20294;-84
2022/09/16 08:38:43;;;;;;;;;;;16.80;63.90;;;;;;5015701;28;19920;-83
2022/09/16 08:41:27;;;;;;;;;;;16.90;63.90;;;;;;5017024;28;20341;-83
2022/09/16 08:44:02;;;;;;;;;;;16.90;63.90;;;;;;5049851;28;19909;-83
2022/09/16 08:46:31;;;;;;;;;;;16.90;63.90;;;;;;5033854;28;19909;-84
2022/09/16 08:49:12;;;;;;;;;;;16.90;63.90;;;;;;5034626;28;19912;-83
2022/09/16 08:51:38;;;;;;;;;;;16.90;63.90;;;;;;5017085;28;20254;-84
2022/09/16 08:54:08;;;;;;;;;;;16.90;63.90;;;;;;5016990;28;19992;-84
2022/09/16 08:56:35;;;;;;;;;;;17.00;64.60;;;;;;5033317;28;19925;-84
2022/09/16 08:59:03;;;;;;;;;;;17.00;63.90;;;;;;5034487;28;20348;-83
2022/09/16 09:01:33;;;;;;;;;;;17.00;63.90;;;;;;5049952;28;19909;-82
2022/09/16 09:03:59;;;;;;;;;;;17.10;63.90;;;;;;5016853;28;19909;-84
2022/09/16 09:06:42;;;;;;;;;;;17.10;63.80;;;;;;5016529;28;20024;-84
2022/09/16 09:09:26;;;;;;;;;;;17.10;63.80;;;;;;5017039;28;19960;-83
2022/09/16 09:12:08;;;;;;;;;;;17.20;63.80;;;;;;5016888;28;20338;-85
2022/09/16 09:14:43;;;;;;;;;;;17.20;63.70;;;;;;5016556;28;19956;-85
2022/09/16 09:17:15;;;;;;;;;;;17.30;63.70;;;;;;5033355;28;19921;-83
2022/09/16 09:19:53;;;;;;;;;;;17.40;63.60;;;;;;5032731;28;19916;-84
2022/09/16 09:22:38;;;;;;;;;;;17.40;63.50;;;;;;5034319;28;20357;-84
2022/09/16 09:25:12;;;;;;;;;;;17.50;63.50;;;;;;5049535;28;20350;-84
2022/09/16 09:27:46;;;;;;;;;;;17.50;63.40;;;;;;5016651;28;19909;-84
2022/09/16 09:30:16;;;;;;;;;;;17.60;63.40;;;;;;5017134;28;20316;-84
2022/09/16 09:33:08;;;;;;;;;;;17.60;63.30;;;;;;5020740;28;19909;-84
2022/09/16 09:35:48;;;;;;;;;;;17.70;63.30;;;;;;5020754;28;19955;-84
2022/09/16 09:38:46;;;;;;;;;;;17.70;63.20;;;;;;5053380;28;20002;-84
2022/09/16 09:41:17;;;;;;;;;;;17.80;63.10;;;;;;4998544;28;19909;-85
2022/09/16 09:43:50;;;;;;;;;;;17.80;63.00;;;;;;5021094;28;19909;-85
2022/09/16 09:46:22;;;;;;;;;;;17.90;63.00;;;;;;5020198;28;19952;-84
2022/09/16 09:48:55;;;;;;;;;;;18.00;63.00;;;;;;5020875;28;20364;-84
2022/09/16 09:51:56;;;;;;;;;;;18.00;62.90;;;;;;5020014;28;19912;-85
2022/09/16 09:54:26;;;;;;;;;;;18.10;62.80;;;;;;4996063;28;19989;-85
2022/09/16 09:56:56;;;;;;;;;;;18.20;62.70;;;;;;5030166;28;19929;-84
2022/09/16 09:59:37;;;;;;;;;;;18.20;62.70;;;;;;5036911;28;19909;-84
2022/09/16 10:02:12;;;;;;;;;;;18.30;62.60;;;;;;5036755;28;20343;-85
2022/09/16 10:04:37;;;;;;;;;;;18.40;62.60;;;;;;5020458;28;19915;-84
2022/09/16 10:07:04;;;;;;;;;;;18.40;62.50;;;;;;5036685;28;20331;-85
2022/09/16 10:09:30;;;;;;;;;;;18.50;62.50;;;;;;5019444;28;20328;-85
2022/09/16 10:11:56;;;;;;;;;;;18.60;62.40;;;;;;5003659;28;19913;-84
2022/09/16 10:14:28;;;;;;;;;;;18.60;62.30;;;;;;5035924;28;19916;-85
2022/09/16 10:16:54;;;;;;;;;;;18.70;62.40;;;;;;5019224;28;19917;-83
2022/09/16 10:19:24;;;;;;;;;;;18.80;62.30;;;;;;5019703;28;20423;-87
2022/09/16 10:21:55;;;;;;;;;;;18.80;62.30;;;;;;5036003;28;19945;-85
2022/09/16 10:24:35;;;;;;;;;;;18.90;62.20;;;;;;5019302;28;19916;-85
2022/09/16 10:27:02;;;;;;;;;;;19.00;62.30;;;;;;5019621;28;19909;-84
2022/09/16 10:29:27;;;;;;;;;;;19.10;62.20;;;;;;5019629;28;19911;-85
2022/09/16 10:31:53;;;;;;;;;;;19.20;62.20;;;;;;5019481;28;20003;-85
2022/09/16 10:34:33;;;;;;;;;;;19.20;62.20;;;;;;5036886;28;20394;-84
2022/09/16 10:37:04;;;;;;;;;;;19.30;62.20;;;;;;5003134;28;19923;-84
2022/09/16 10:39:31;;;;;;;;;;;19.30;62.10;;;;;;5036662;28;20403;-84
2022/09/16 10:41:56;;;;;;;;;;;19.40;62.10;;;;;;5002698;28;19958;-85
2022/09/16 10:44:26;;;;;;;;;;;19.50;62.10;;;;;;5003394;28;20003;-85
2022/09/16 10:47:02;;;;;;;;;;;19.50;62.00;;;;;;5019552;28;19908;-87
2022/09/16 10:49:38;;;;;;;;;;;19.60;62.10;;;;;;5002914;28;19909;-86
2022/09/16 10:52:08;;;;;;;;;;;19.70;62.00;;;;;;5003282;28;19909;-85
2022/09/16 10:54:34;;;;;;;;;;;19.70;61.90;;;;;;5036737;28;19909;-84
2022/09/16 10:56:59;;;;;;;;;;;19.80;61.90;;;;;;5002887;28;19917;-89
2022/09/16 10:59:25;;;;;;;;;;;19.90;61.90;;;;;;5037065;28;19963;-88
2022/09/16 11:02:10;;;;;;;;;;;19.90;61.80;;;;;;5003259;28;19909;-87
2022/09/16 11:04:39;;;;;;;;;;;20.00;61.80;;;;;;5004395;28;19909;-88
2022/09/16 11:07:34;;;;;;;;;;;20.10;61.80;;;;;;5028741;28;19963;-88
2022/09/16 11:10:19;;;;;;;;;;;20.10;62.40;;;;;;5012269;28;19917;-90
2022/09/16 11:12:56;;;;;;;;;;;20.20;61.80;;;;;;5037434;28;19913;-88
2022/09/16 11:15:37;;;;;;;;;;;20.20;61.70;;;;;;5019957;28;20355;-86
2022/09/16 11:18:21;;;;;;;;;;;20.30;61.70;;;;;;5019213;28;19917;-85
2022/09/16 11:21:13;;;;;;;;;;;20.30;61.70;;;;;;5037153;28;19909;-85
2022/09/16 11:23:39;;;;;;;;;;;20.30;61.70;;;;;;5003628;28;19909;-85
2022/09/16 11:26:11;;;;;;;;;;;20.40;61.70;;;;;;5003241;28;20249;-83
2022/09/16 11:28:51;;;;;;;;;;;20.40;61.70;;;;;;5036386;28;20250;-84
2022/09/16 11:31:17;;;;;;;;;;;20.40;61.60;;;;;;5036212;28;19909;-86
2022/09/16 11:33:49;;;;;;;;;;;20.50;61.60;;;;;;5018968;28;19920;-85
2022/09/16 11:36:38;;;;;;;;;;;20.50;61.50;;;;;;5018661;28;19976;-85
2022/09/16 11:39:10;;;;;;;;;;;20.60;61.50;;;;;;5012907;28;19909;-84
2022/09/16 11:41:41;;;;;;;;;;;20.60;61.40;;;;;;5002549;28;19916;-85
2022/09/16 11:44:14;;;;;;;;;;;20.60;61.40;;;;;;5019157;28;19936;-87
2022/09/16 11:47:06;;;;;;;;;;;20.60;61.30;;;;;;5018909;28;19909;-89
2022/09/16 11:49:38;;;;;;;;;;;20.60;61.30;;;;;;5013258;28;19913;-86
2022/09/16 11:52:09;;;;;;;;;;;20.60;61.20;;;;;;5018592;28;20300;-85
2022/09/16 11:54:45;;;;;;;;;;;20.60;61.20;;;;;;5001847;28;19988;-86
2022/09/16 11:57:14;;;;;;;;;;;20.60;61.20;;;;;;5002871;28;19917;-87
2022/09/16 11:59:55;;;;;;;;;;;20.60;61.10;;;;;;5001978;28;19905;-87
2022/09/16 12:02:23;;;;;;;;;;;20.60;61.10;;;;;;5035498;28;19913;-85
2022/09/16 12:04:49;;;;;;;;;;;20.70;61.10;;;;;;5018017;28;20385;-86
2022/09/16 12:07:14;;;;;;;;;;;20.60;61.10;;;;;;5018243;28;19955;-85
2022/09/16 12:09:45;;;;;;;;;;;20.60;61.10;;;;;;5017516;28;20389;-85
2022/09/16 12:12:12;;;;;;;;;;;20.70;61.20;;;;;;5035342;28;20004;-84
2022/09/16 12:14:41;;;;;;;;;;;20.70;61.20;;;;;;5050948;28;20007;-85
2022/09/16 12:17:12;;;;;;;;;;;20.60;61.10;;;;;;5001196;28;19916;-85
2022/09/16 12:19:47;;;;;;;;;;;20.60;61.20;;;;;;5017713;28;19916;-85
2022/09/16 12:22:27;;;;;;;;;;;20.70;61.70;;;;;;5034928;28;19909;-86
2022/09/16 12:24:56;;;;;;;;;;;20.60;60.90;;;;;;5001243;28;20239;-84
2022/09/16 12:27:33;;;;;;;;;;;20.60;60.90;;;;;;5017600;28;19905;-84
2022/09/16 12:30:01;;;;;;;;;;;20.70;61.00;;;;;;5017554;28;19916;-86
2022/09/16 12:32:45;;;;;;;;;;;20.70;61.00;;;;;;5001529;28;20244;-84
2022/09/16 12:35:14;;;;;;;;;;;20.60;60.90;;;;;;5017054;28;20354;-85
2022/09/16 12:37:49;;;;;;;;;;;20.60;60.90;;;;;;5000803;28;19920;-84
2022/09/16 12:40:17;;;;;;;;;;;20.60;60.90;;;;;;5050124;28;20382;-84
2022/09/16 12:43:01;;;;;;;;;;;20.60;60.90;;;;;;5000015;28;19905;-84
2022/09/16 12:45:46;;;;;;;;;;;20.60;60.90;;;;;;5034427;28;20054;-84
2022/09/16 12:48:18;;;;;;;;;;;20.60;60.90;;;;;;5033807;28;20288;-84
2022/09/16 12:51:02;;;;;;;;;;;20.60;60.90;;;;;;5034331;28;19908;-84
2022/09/16 12:53:37;;;;;;;;;;;20.60;60.90;;;;;;5016582;28;19924;-84
2022/09/16 12:56:12;;;;;;;;;;;20.60;60.80;;;;;;5034081;28;19917;-84
2022/09/16 12:58:49;;;;;;;;;;;20.60;60.80;;;;;;5016873;28;19963;-85
2022/09/16 13:01:21;;;;;;;;;;;20.60;60.80;;;;;;5000280;28;19908;-86
2022/09/16 13:04:00;;;;;;;;;;;20.60;60.80;;;;;;5033213;28;19962;-84
2022/09/16 13:06:27;;;;;;;;;;;20.60;60.80;;;;;;5000419;28;20269;-84
2022/09/16 13:08:53;;;;;;;;;;;20.60;60.70;;;;;;5016370;28;19917;-84
2022/09/16 13:11:21;;;;;;;;;;;20.60;60.70;;;;;;5032940;28;19913;-84
2022/09/16 13:13:48;;;;;;;;;;;20.60;60.70;;;;;;5016528;28;19909;-84
2022/09/16 13:16:25;;;;;;;;;;;20.60;60.70;;;;;;5016514;28;19921;-84
2022/09/16 13:19:02;;;;;;;;;;;20.60;60.70;;;;;;5016646;28;20346;-85
2022/09/16 13:21:30;;;;;;;;;;;20.60;60.60;;;;;;5016450;28;19911;-84
2022/09/16 13:24:04;;;;;;;;;;;20.60;60.60;;;;;;5049097;28;20379;-83
2022/09/16 13:26:37;;;;;;;;;;;20.60;60.60;;;;;;5015805;28;19909;-84
2022/09/16 13:29:22;;;;;;;;;;;20.60;60.50;;;;;;5016158;28;20379;-83
2022/09/16 13:31:48;;;;;;;;;;;20.60;61.20;;;;;;5033371;28;19910;-85
2022/09/16 13:34:15;;;;;;;;;;;20.60;60.50;;;;;;5016458;28;19905;-84
2022/09/16 13:36:40;;;;;;;;;;;20.60;60.50;;;;;;5016010;28;19921;-83
2022/09/16 13:39:10;;;;;;;;;;;20.60;60.50;;;;;;5033385;28;20370;-84
2022/09/16 13:41:36;;;;;;;;;;;20.60;60.50;;;;;;5016294;28;19909;-84
2022/09/16 13:44:20;;;;;;;;;;;20.60;60.50;;;;;;5049021;28;20287;-85
2022/09/16 13:46:46;;;;;;;;;;;20.60;60.40;;;;;;5049324;28;19916;-85
2022/09/16 13:49:16;;;;;;;;;;;20.60;60.40;;;;;;5033470;28;19909;-84
2022/09/16 13:51:45;;;;;;;;;;;20.60;60.40;;;;;;5033955;28;19909;-86
2022/09/16 13:54:19;;;;;;;;;;;20.60;60.30;;;;;;5018012;28;19967;-86
2022/09/16 13:56:50;;;;;;;;;;;20.60;60.30;;;;;;5016480;28;20388;-85
2022/09/16 13:59:22;;;;;;;;;;;20.60;60.20;;;;;;5034115;28;20360;-85
2022/09/16 14:01:57;;;;;;;;;;;20.60;60.20;;;;;;5049460;28;19913;-86
2022/09/16 14:04:35;;;;;;;;;;;20.60;60.20;;;;;;5017129;28;20006;-86
2022/09/16 14:07:24;;;;;;;;;;;20.70;60.20;;;;;;5016968;28;19916;-87
2022/09/16 14:09:53;;;;;;;;;;;20.60;60.10;;;;;;5016712;28;19916;-88
2022/09/16 14:12:31;;;;;;;;;;;20.60;60.10;;;;;;5033161;28;20059;-86
2022/09/16 14:14:57;;;;;;;;;;;20.60;60.10;;;;;;5017017;28;19916;-86
2022/09/16 14:17:24;;;;;;;;;;;20.60;60.10;;;;;;5019059;28;20330;-87
2022/09/16 14:19:52;;;;;;;;;;;20.60;60.10;;;;;;5037902;28;19928;-87
2022/09/16 14:22:20;;;;;;;;;;;20.60;60.10;;;;;;5020497;28;19909;-88
2022/09/16 14:24:46;;;;;;;;;;;20.60;60.00;;;;;;5020370;28;19913;-88
2022/09/16 14:27:21;;;;;;;;;;;20.60;60.00;;;;;;5019732;28;19963;-82
2022/09/16 14:29:57;;;;;;;;;;;20.60;59.90;;;;;;5019629;28;19909;-84
2022/09/16 14:32:27;;;;;;;;;;;20.60;59.90;;;;;;5019761;28;19983;-82
2022/09/16 14:34:54;;;;;;;;;;;20.60;59.90;;;;;;5019082;28;19916;-83